Gretna, Louisiana
Current Conditions -  °F | °C
As of 3:35 PM on Tuesday 21 Oct 2014 (Local Time) from KVSH Reporting Station
Clear Clear  
Wind Chill: 79°   Ceiling: Unl
Heat Index: 79°   Visibility: 10mi
Dew Point: 52°   Wind: 6mph
Humidity: 39%   Direction: 20°NNE
Pressure: 29.99"   Gusts: NA
Location:  29.92°N, 90.06°W
Report Text: KVSH 212035Z AUTO 02005KT 10SM CLR 26/11 A2999 RMK AO1
Loading
Personal Weather Stations






























Interactive Weather Map
Tropical Storm Tracking
New forecast layout! Learn more

10-Day Weather Forecast

Advertisements
Track Severe Weather on mobile